sensor_id;sensor_type;location;lat;lon;timestamp;P1;durP1;ratioP1;P2;durP2;ratioP2
11346;SDS011;5728;42.722;23.258;2023-12-20T00:01:00;45.77;;;24.60;;
11346;SDS011;5728;42.722;23.258;2023-12-20T00:03:27;37.63;;;21.90;;
11346;SDS011;5728;42.722;23.258;2023-12-20T00:05:54;35.97;;;20.57;;
11346;SDS011;5728;42.722;23.258;2023-12-20T00:08:21;33.37;;;20.23;;
11346;SDS011;5728;42.722;23.258;2023-12-20T00:10:50;38.17;;;22.07;;
11346;SDS011;5728;42.722;23.258;2023-12-20T00:13:19;39.37;;;20.97;;
11346;SDS011;5728;42.722;23.258;2023-12-20T00:15:46;43.67;;;21.37;;
11346;SDS011;5728;42.722;23.258;2023-12-20T00:18:13;32.30;;;19.53;;
11346;SDS011;5728;42.722;23.258;2023-12-20T00:20:40;30.70;;;19.77;;
11346;SDS011;5728;42.722;23.258;2023-12-20T00:23:08;32.70;;;17.40;;
11346;SDS011;5728;42.722;23.258;2023-12-20T00:25:34;27.70;;;16.87;;
11346;SDS011;5728;42.722;23.258;2023-12-20T00:28:02;28.37;;;16.17;;
11346;SDS011;5728;42.722;23.258;2023-12-20T00:30:30;29.77;;;17.73;;
11346;SDS011;5728;42.722;23.258;2023-12-20T00:32:57;30.80;;;17.77;;
11346;SDS011;5728;42.722;23.258;2023-12-20T00:35:24;30.90;;;16.53;;
11346;SDS011;5728;42.722;23.258;2023-12-20T00:37:51;25.97;;;17.10;;
11346;SDS011;5728;42.722;23.258;2023-12-20T00:40:18;29.77;;;17.40;;
11346;SDS011;5728;42.722;23.258;2023-12-20T00:42:45;32.17;;;17.77;;
11346;SDS011;5728;42.722;23.258;2023-12-20T00:45:13;28.17;;;16.73;;
11346;SDS011;5728;42.722;23.258;2023-12-20T00:47:42;30.80;;;17.33;;
11346;SDS011;5728;42.722;23.258;2023-12-20T00:50:09;30.73;;;17.87;;
11346;SDS011;5728;42.722;23.258;2023-12-20T00:52:38;38.27;;;22.93;;
11346;SDS011;5728;42.722;23.258;2023-12-20T00:55:05;39.73;;;22.97;;
11346;SDS011;5728;42.722;23.258;2023-12-20T00:57:32;41.13;;;23.83;;
11346;SDS011;5728;42.722;23.258;2023-12-20T01:00:00;40.93;;;22.37;;
11346;SDS011;5728;42.722;23.258;2023-12-20T01:02:26;33.83;;;19.03;;
11346;SDS011;5728;42.722;23.258;2023-12-20T01:04:55;35.00;;;20.70;;
11346;SDS011;5728;42.722;23.258;2023-12-20T01:07:22;29.07;;;18.33;;
11346;SDS011;5728;42.722;23.258;2023-12-20T01:09:49;33.80;;;18.50;;
11346;SDS011;5728;42.722;23.258;2023-12-20T01:12:16;31.73;;;18.40;;
11346;SDS011;5728;42.722;23.258;2023-12-20T01:14:45;30.90;;;17.60;;
11346;SDS011;5728;42.722;23.258;2023-12-20T01:17:12;32.47;;;18.30;;
11346;SDS011;5728;42.722;23.258;2023-12-20T01:19:39;34.20;;;18.67;;
11346;SDS011;5728;42.722;23.258;2023-12-20T01:22:08;38.23;;;19.10;;
11346;SDS011;5728;42.722;23.258;2023-12-20T01:24:35;34.33;;;17.87;;
11346;SDS011;5728;42.722;23.258;2023-12-20T01:27:02;32.97;;;18.60;;
11346;SDS011;5728;42.722;23.258;2023-12-20T01:29:29;38.57;;;18.80;;
11346;SDS011;5728;42.722;23.258;2023-12-20T01:31:56;32.87;;;18.33;;
11346;SDS011;5728;42.722;23.258;2023-12-20T01:34:23;37.10;;;21.83;;
11346;SDS011;5728;42.722;23.258;2023-12-20T01:36:50;42.83;;;21.13;;
11346;SDS011;5728;42.722;23.258;2023-12-20T01:39:18;35.90;;;21.13;;
11346;SDS011;5728;42.722;23.258;2023-12-20T01:41:45;34.23;;;19.77;;
11346;SDS011;5728;42.722;23.258;2023-12-20T01:44:12;40.17;;;21.30;;
11346;SDS011;5728;42.722;23.258;2023-12-20T01:46:39;45.80;;;23.43;;
11346;SDS011;5728;42.722;23.258;2023-12-20T01:49:07;40.27;;;22.73;;
11346;SDS011;5728;42.722;23.258;2023-12-20T01:51:34;43.23;;;25.60;;
11346;SDS011;5728;42.722;23.258;2023-12-20T01:54:02;48.53;;;28.23;;
11346;SDS011;5728;42.722;23.258;2023-12-20T01:56:32;66.23;;;35.43;;
11346;SDS011;5728;42.722;23.258;2023-12-20T01:59:00;74.07;;;42.93;;
11346;SDS011;5728;42.722;23.258;2023-12-20T02:01:29;74.13;;;39.20;;
11346;SDS011;5728;42.722;23.258;2023-12-20T02:03:57;62.47;;;34.13;;
11346;SDS011;5728;42.722;23.258;2023-12-20T02:06:25;64.90;;;33.47;;
11346;SDS011;5728;42.722;23.258;2023-12-20T02:08:56;54.97;;;33.73;;
11346;SDS011;5728;42.722;23.258;2023-12-20T02:11:24;57.03;;;32.77;;
11346;SDS011;5728;42.722;23.258;2023-12-20T02:13:53;68.63;;;32.37;;
11346;SDS011;5728;42.722;23.258;2023-12-20T02:16:20;66.33;;;30.43;;
11346;SDS011;5728;42.722;23.258;2023-12-20T02:18:48;63.50;;;33.03;;
11346;SDS011;5728;42.722;23.258;2023-12-20T02:21:15;153.90;;;35.23;;
11346;SDS011;5728;42.722;23.258;2023-12-20T02:23:43;91.57;;;32.93;;
11346;SDS011;5728;42.722;23.258;2023-12-20T02:26:10;328.00;;;36.03;;
11346;SDS011;5728;42.722;23.258;2023-12-20T02:28:39;154.67;;;29.43;;
11346;SDS011;5728;42.722;23.258;2023-12-20T02:31:06;155.20;;;30.80;;
11346;SDS011;5728;42.722;23.258;2023-12-20T02:33:33;108.70;;;26.70;;
11346;SDS011;5728;42.722;23.258;2023-12-20T02:36:00;118.20;;;29.00;;
11346;SDS011;5728;42.722;23.258;2023-12-20T02:38:27;135.90;;;27.33;;
11346;SDS011;5728;42.722;23.258;2023-12-20T02:40:55;64.37;;;23.60;;
11346;SDS011;5728;42.722;23.258;2023-12-20T02:43:22;187.57;;;25.80;;
11346;SDS011;5728;42.722;23.258;2023-12-20T02:45:49;157.30;;;23.80;;
11346;SDS011;5728;42.722;23.258;2023-12-20T02:48:16;266.93;;;25.90;;
11346;SDS011;5728;42.722;23.258;2023-12-20T02:50:43;137.90;;;22.27;;
11346;SDS011;5728;42.722;23.258;2023-12-20T02:53:12;136.90;;;24.80;;
11346;SDS011;5728;42.722;23.258;2023-12-20T02:55:39;74.73;;;21.47;;
11346;SDS011;5728;42.722;23.258;2023-12-20T02:58:08;87.73;;;20.80;;
11346;SDS011;5728;42.722;23.258;2023-12-20T03:00:35;116.43;;;24.40;;
11346;SDS011;5728;42.722;23.258;2023-12-20T03:03:02;160.17;;;24.77;;
11346;SDS011;5728;42.722;23.258;2023-12-20T03:05:29;124.47;;;25.13;;
11346;SDS011;5728;42.722;23.258;2023-12-20T03:07:56;50.47;;;21.43;;
11346;SDS011;5728;42.722;23.258;2023-12-20T03:10:23;100.60;;;22.10;;
11346;SDS011;5728;42.722;23.258;2023-12-20T03:12:50;74.47;;;22.00;;
11346;SDS011;5728;42.722;23.258;2023-12-20T03:15:18;77.63;;;21.90;;
11346;SDS011;5728;42.722;23.258;2023-12-20T03:17:45;70.47;;;22.87;;
11346;SDS011;5728;42.722;23.258;2023-12-20T03:20:12;60.80;;;21.40;;
11346;SDS011;5728;42.722;23.258;2023-12-20T03:22:39;60.13;;;23.87;;
11346;SDS011;5728;42.722;23.258;2023-12-20T03:25:07;120.27;;;23.97;;
11346;SDS011;5728;42.722;23.258;2023-12-20T03:27:34;165.93;;;27.27;;
11346;SDS011;5728;42.722;23.258;2023-12-20T03:30:04;41.83;;;21.43;;
11346;SDS011;5728;42.722;23.258;2023-12-20T03:32:33;53.33;;;23.93;;
11346;SDS011;5728;42.722;23.258;2023-12-20T03:35:00;41.73;;;22.20;;
11346;SDS011;5728;42.722;23.258;2023-12-20T03:37:27;50.97;;;23.23;;
11346;SDS011;5728;42.722;23.258;2023-12-20T03:39:54;62.73;;;22.03;;
11346;SDS011;5728;42.722;23.258;2023-12-20T03:42:21;47.60;;;22.07;;
11346;SDS011;5728;42.722;23.258;2023-12-20T03:44:48;91.63;;;24.57;;
11346;SDS011;5728;42.722;23.258;2023-12-20T03:47:15;145.53;;;24.97;;
11346;SDS011;5728;42.722;23.258;2023-12-20T03:49:44;72.10;;;21.87;;
11346;SDS011;5728;42.722;23.258;2023-12-20T03:52:11;97.40;;;21.87;;
11346;SDS011;5728;42.722;23.258;2023-12-20T03:54:38;82.57;;;23.13;;
11346;SDS011;5728;42.722;23.258;2023-12-20T03:57:05;66.07;;;21.57;;
11346;SDS011;5728;42.722;23.258;2023-12-20T03:59:34;63.30;;;20.87;;
11346;SDS011;5728;42.722;23.258;2023-12-20T04:02:01;105.37;;;22.93;;
11346;SDS011;5728;42.722;23.258;2023-12-20T04:04:29;137.83;;;22.27;;
11346;SDS011;5728;42.722;23.258;2023-12-20T04:06:57;148.73;;;28.90;;
11346;SDS011;5728;42.722;23.258;2023-12-20T04:09:24;97.00;;;24.63;;
11346;SDS011;5728;42.722;23.258;2023-12-20T04:11:51;99.00;;;25.33;;
11346;SDS011;5728;42.722;23.258;2023-12-20T04:14:19;120.63;;;24.17;;
11346;SDS011;5728;42.722;23.258;2023-12-20T04:16:46;59.00;;;23.33;;
11346;SDS011;5728;42.722;23.258;2023-12-20T04:19:13;111.53;;;24.67;;
11346;SDS011;5728;42.722;23.258;2023-12-20T04:21:40;149.40;;;26.90;;
11346;SDS011;5728;42.722;23.258;2023-12-20T04:24:08;113.37;;;26.87;;
11346;SDS011;5728;42.722;23.258;2023-12-20T04:26:36;141.83;;;30.53;;
11346;SDS011;5728;42.722;23.258;2023-12-20T04:29:03;153.77;;;31.33;;
11346;SDS011;5728;42.722;23.258;2023-12-20T04:31:30;146.10;;;28.77;;
11346;SDS011;5728;42.722;23.258;2023-12-20T04:33:57;145.43;;;27.40;;
11346;SDS011;5728;42.722;23.258;2023-12-20T04:36:24;112.07;;;28.67;;
11346;SDS011;5728;42.722;23.258;2023-12-20T04:38:55;127.90;;;27.33;;
11346;SDS011;5728;42.722;23.258;2023-12-20T04:41:23;128.73;;;28.27;;
11346;SDS011;5728;42.722;23.258;2023-12-20T04:43:50;152.97;;;29.20;;
11346;SDS011;5728;42.722;23.258;2023-12-20T04:46:18;128.73;;;30.00;;
11346;SDS011;5728;42.722;23.258;2023-12-20T04:48:45;242.93;;;29.23;;
11346;SDS011;5728;42.722;23.258;2023-12-20T04:51:12;196.27;;;28.63;;
11346;SDS011;5728;42.722;23.258;2023-12-20T04:53:39;173.40;;;30.43;;
11346;SDS011;5728;42.722;23.258;2023-12-20T04:56:06;136.07;;;28.30;;
11346;SDS011;5728;42.722;23.258;2023-12-20T04:58:35;95.93;;;23.67;;
11346;SDS011;5728;42.722;23.258;2023-12-20T05:01:02;63.67;;;22.97;;
11346;SDS011;5728;42.722;23.258;2023-12-20T05:03:30;123.73;;;23.93;;
11346;SDS011;5728;42.722;23.258;2023-12-20T05:05:57;88.13;;;26.67;;
11346;SDS011;5728;42.722;23.258;2023-12-20T05:08:24;87.60;;;25.30;;
11346;SDS011;5728;42.722;23.258;2023-12-20T05:10:51;115.50;;;22.97;;
11346;SDS011;5728;42.722;23.258;2023-12-20T05:13:20;55.10;;;22.90;;
11346;SDS011;5728;42.722;23.258;2023-12-20T05:15:48;100.87;;;25.07;;
11346;SDS011;5728;42.722;23.258;2023-12-20T05:18:16;51.80;;;22.43;;
11346;SDS011;5728;42.722;23.258;2023-12-20T05:20:43;96.97;;;24.60;;
11346;SDS011;5728;42.722;23.258;2023-12-20T05:23:11;96.77;;;24.27;;
11346;SDS011;5728;42.722;23.258;2023-12-20T05:25:38;95.47;;;25.33;;
11346;SDS011;5728;42.722;23.258;2023-12-20T05:28:05;136.43;;;26.17;;
11346;SDS011;5728;42.722;23.258;2023-12-20T05:30:33;71.73;;;25.07;;
11346;SDS011;5728;42.722;23.258;2023-12-20T05:33:01;62.63;;;25.03;;
11346;SDS011;5728;42.722;23.258;2023-12-20T05:35:28;100.23;;;27.27;;
11346;SDS011;5728;42.722;23.258;2023-12-20T05:37:55;58.37;;;26.87;;
11346;SDS011;5728;42.722;23.258;2023-12-20T05:40:22;92.77;;;30.70;;
11346;SDS011;5728;42.722;23.258;2023-12-20T05:42:49;78.33;;;29.07;;
11346;SDS011;5728;42.722;23.258;2023-12-20T05:45:16;115.73;;;31.20;;
11346;SDS011;5728;42.722;23.258;2023-12-20T05:47:43;108.77;;;31.20;;
11346;SDS011;5728;42.722;23.258;2023-12-20T05:50:12;61.47;;;27.33;;
11346;SDS011;5728;42.722;23.258;2023-12-20T05:52:39;134.17;;;31.67;;
11346;SDS011;5728;42.722;23.258;2023-12-20T05:55:08;65.77;;;29.77;;
11346;SDS011;5728;42.722;23.258;2023-12-20T05:57:35;70.27;;;28.10;;
11346;SDS011;5728;42.722;23.258;2023-12-20T06:00:03;115.47;;;30.47;;
11346;SDS011;5728;42.722;23.258;2023-12-20T06:02:31;92.93;;;32.30;;
11346;SDS011;5728;42.722;23.258;2023-12-20T06:04:58;98.73;;;30.60;;
11346;SDS011;5728;42.722;23.258;2023-12-20T06:07:26;197.43;;;35.77;;
11346;SDS011;5728;42.722;23.258;2023-12-20T06:09:53;74.73;;;26.37;;
11346;SDS011;5728;42.722;23.258;2023-12-20T06:12:20;83.37;;;28.27;;
11346;SDS011;5728;42.722;23.258;2023-12-20T06:14:47;110.13;;;28.93;;
11346;SDS011;5728;42.722;23.258;2023-12-20T06:17:14;119.33;;;30.67;;
11346;SDS011;5728;42.722;23.258;2023-12-20T06:19:41;112.13;;;31.17;;
11346;SDS011;5728;42.722;23.258;2023-12-20T06:22:10;186.87;;;31.20;;
11346;SDS011;5728;42.722;23.258;2023-12-20T06:24:38;163.93;;;30.53;;
11346;SDS011;5728;42.722;23.258;2023-12-20T06:27:05;148.57;;;25.17;;
11346;SDS011;5728;42.722;23.258;2023-12-20T06:29:32;64.07;;;26.97;;
11346;SDS011;5728;42.722;23.258;2023-12-20T06:32:00;103.50;;;26.03;;
11346;SDS011;5728;42.722;23.258;2023-12-20T06:34:27;50.67;;;23.50;;
11346;SDS011;5728;42.722;23.258;2023-12-20T06:36:54;59.42;;;25.95;;
11346;SDS011;5728;42.722;23.258;2023-12-20T06:39:21;95.33;;;25.60;;
11346;SDS011;5728;42.722;23.258;2023-12-20T06:41:49;80.40;;;23.23;;
11346;SDS011;5728;42.722;23.258;2023-12-20T06:44:16;102.73;;;24.90;;
11346;SDS011;5728;42.722;23.258;2023-12-20T06:46:43;77.27;;;26.97;;
11346;SDS011;5728;42.722;23.258;2023-12-20T06:49:11;90.50;;;28.80;;
11346;SDS011;5728;42.722;23.258;2023-12-20T06:51:38;89.27;;;30.40;;
11346;SDS011;5728;42.722;23.258;2023-12-20T06:54:05;107.83;;;33.87;;
11346;SDS011;5728;42.722;23.258;2023-12-20T06:56:32;121.40;;;33.83;;
11346;SDS011;5728;42.722;23.258;2023-12-20T06:59:00;133.90;;;33.70;;
11346;SDS011;5728;42.722;23.258;2023-12-20T07:01:27;114.33;;;31.67;;
11346;SDS011;5728;42.722;23.258;2023-12-20T07:03:54;91.83;;;32.37;;
11346;SDS011;5728;42.722;23.258;2023-12-20T07:06:21;109.33;;;33.30;;
11346;SDS011;5728;42.722;23.258;2023-12-20T07:08:50;84.60;;;34.37;;
11346;SDS011;5728;42.722;23.258;2023-12-20T07:11:18;71.93;;;33.13;;
11346;SDS011;5728;42.722;23.258;2023-12-20T07:13:45;62.87;;;29.33;;
11346;SDS011;5728;42.722;23.258;2023-12-20T07:16:14;78.17;;;33.50;;
11346;SDS011;5728;42.722;23.258;2023-12-20T07:18:40;85.00;;;33.07;;
11346;SDS011;5728;42.722;23.258;2023-12-20T07:21:08;70.93;;;30.40;;
11346;SDS011;5728;42.722;23.258;2023-12-20T07:23:34;92.03;;;32.33;;
11346;SDS011;5728;42.722;23.258;2023-12-20T07:26:01;74.33;;;29.97;;
11346;SDS011;5728;42.722;23.258;2023-12-20T07:28:29;65.77;;;26.83;;
11346;SDS011;5728;42.722;23.258;2023-12-20T07:30:56;71.80;;;27.17;;
11346;SDS011;5728;42.722;23.258;2023-12-20T07:33:24;46.10;;;22.17;;
11346;SDS011;5728;42.722;23.258;2023-12-20T07:35:51;67.73;;;25.13;;
11346;SDS011;5728;42.722;23.258;2023-12-20T07:38:18;65.03;;;26.47;;
11346;SDS011;5728;42.722;23.258;2023-12-20T07:40:45;75.30;;;26.50;;
11346;SDS011;5728;42.722;23.258;2023-12-20T07:43:13;52.40;;;25.80;;
11346;SDS011;5728;42.722;23.258;2023-12-20T07:45:40;83.70;;;26.20;;
11346;SDS011;5728;42.722;23.258;2023-12-20T07:48:07;96.07;;;26.67;;
11346;SDS011;5728;42.722;23.258;2023-12-20T07:50:36;66.90;;;28.37;;
11346;SDS011;5728;42.722;23.258;2023-12-20T07:53:03;79.53;;;30.07;;
11346;SDS011;5728;42.722;23.258;2023-12-20T07:55:30;71.80;;;30.90;;
11346;SDS011;5728;42.722;23.258;2023-12-20T07:57:57;78.07;;;29.97;;
11346;SDS011;5728;42.722;23.258;2023-12-20T08:00:24;73.70;;;28.90;;
11346;SDS011;5728;42.722;23.258;2023-12-20T08:02:51;78.90;;;30.10;;
11346;SDS011;5728;42.722;23.258;2023-12-20T08:05:18;63.70;;;27.63;;
11346;SDS011;5728;42.722;23.258;2023-12-20T08:07:47;146.80;;;32.17;;
11346;SDS011;5728;42.722;23.258;2023-12-20T08:10:14;73.47;;;30.47;;
11346;SDS011;5728;42.722;23.258;2023-12-20T08:12:43;75.17;;;32.93;;
11346;SDS011;5728;42.722;23.258;2023-12-20T08:15:10;100.60;;;32.90;;
11346;SDS011;5728;42.722;23.258;2023-12-20T08:17:37;68.23;;;29.77;;
11346;SDS011;5728;42.722;23.258;2023-12-20T08:20:05;76.23;;;33.23;;
11346;SDS011;5728;42.722;23.258;2023-12-20T08:22:32;78.20;;;34.57;;
11346;SDS011;5728;42.722;23.258;2023-12-20T08:25:01;67.67;;;31.13;;
11346;SDS011;5728;42.722;23.258;2023-12-20T08:27:28;76.63;;;33.73;;
11346;SDS011;5728;42.722;23.258;2023-12-20T08:29:56;63.97;;;29.20;;
11346;SDS011;5728;42.722;23.258;2023-12-20T08:32:24;53.03;;;28.40;;
11346;SDS011;5728;42.722;23.258;2023-12-20T08:34:52;58.03;;;28.37;;
11346;SDS011;5728;42.722;23.258;2023-12-20T08:37:19;66.17;;;30.40;;
11346;SDS011;5728;42.722;23.258;2023-12-20T08:39:46;75.23;;;29.23;;
11346;SDS011;5728;42.722;23.258;2023-12-20T08:42:15;62.50;;;28.73;;
11346;SDS011;5728;42.722;23.258;2023-12-20T08:44:42;63.00;;;30.73;;
11346;SDS011;5728;42.722;23.258;2023-12-20T08:47:09;59.63;;;30.10;;
11346;SDS011;5728;42.722;23.258;2023-12-20T08:49:38;67.53;;;32.53;;
11346;SDS011;5728;42.722;23.258;2023-12-20T08:52:05;65.10;;;31.63;;
11346;SDS011;5728;42.722;23.258;2023-12-20T08:54:32;65.83;;;30.47;;
11346;SDS011;5728;42.722;23.258;2023-12-20T08:56:59;72.93;;;34.67;;
11346;SDS011;5728;42.722;23.258;2023-12-20T08:59:28;72.13;;;35.77;;
11346;SDS011;5728;42.722;23.258;2023-12-20T09:01:55;76.20;;;34.60;;
11346;SDS011;5728;42.722;23.258;2023-12-20T09:04:22;77.87;;;38.10;;
11346;SDS011;5728;42.722;23.258;2023-12-20T09:06:49;80.80;;;36.90;;
11346;SDS011;5728;42.722;23.258;2023-12-20T09:09:16;87.30;;;37.87;;
11346;SDS011;5728;42.722;23.258;2023-12-20T09:11:43;89.57;;;39.73;;
11346;SDS011;5728;42.722;23.258;2023-12-20T09:14:11;85.83;;;42.10;;
11346;SDS011;5728;42.722;23.258;2023-12-20T09:16:39;89.23;;;42.43;;
11346;SDS011;5728;42.722;23.258;2023-12-20T09:19:06;104.80;;;46.33;;
11346;SDS011;5728;42.722;23.258;2023-12-20T09:21:33;96.20;;;43.03;;
11346;SDS011;5728;42.722;23.258;2023-12-20T09:24:00;99.17;;;46.23;;
11346;SDS011;5728;42.722;23.258;2023-12-20T09:26:28;126.37;;;49.43;;
11346;SDS011;5728;42.722;23.258;2023-12-20T09:28:55;120.67;;;50.83;;
11346;SDS011;5728;42.722;23.258;2023-12-20T09:31:22;115.40;;;48.83;;
11346;SDS011;5728;42.722;23.258;2023-12-20T09:33:51;119.13;;;49.20;;
11346;SDS011;5728;42.722;23.258;2023-12-20T09:36:18;120.70;;;51.57;;
11346;SDS011;5728;42.722;23.258;2023-12-20T09:38:45;129.67;;;53.13;;
11346;SDS011;5728;42.722;23.258;2023-12-20T09:41:12;122.17;;;52.70;;
11346;SDS011;5728;42.722;23.258;2023-12-20T09:43:39;120.17;;;55.00;;
11346;SDS011;5728;42.722;23.258;2023-12-20T09:46:07;128.50;;;52.70;;
11346;SDS011;5728;42.722;23.258;2023-12-20T09:48:36;132.50;;;55.80;;
11346;SDS011;5728;42.722;23.258;2023-12-20T09:51:05;118.23;;;53.20;;
11346;SDS011;5728;42.722;23.258;2023-12-20T09:53:32;126.70;;;54.33;;
11346;SDS011;5728;42.722;23.258;2023-12-20T09:56:03;117.77;;;55.03;;
11346;SDS011;5728;42.722;23.258;2023-12-20T09:58:32;129.20;;;53.50;;
11346;SDS011;5728;42.722;23.258;2023-12-20T10:00:59;136.17;;;59.37;;
11346;SDS011;5728;42.722;23.258;2023-12-20T10:03:27;201.33;;;82.57;;
11346;SDS011;5728;42.722;23.258;2023-12-20T10:05:56;181.67;;;77.10;;
11346;SDS011;5728;42.722;23.258;2023-12-20T10:08:25;125.37;;;55.00;;
11346;SDS011;5728;42.722;23.258;2023-12-20T10:10:52;127.50;;;53.47;;
11346;SDS011;5728;42.722;23.258;2023-12-20T10:13:20;133.70;;;55.73;;
11346;SDS011;5728;42.722;23.258;2023-12-20T10:15:47;120.27;;;53.67;;
11346;SDS011;5728;42.722;23.258;2023-12-20T10:18:16;118.03;;;55.33;;
11346;SDS011;5728;42.722;23.258;2023-12-20T10:20:44;118.93;;;53.03;;
11346;SDS011;5728;42.722;23.258;2023-12-20T10:23:11;113.97;;;53.50;;
11346;SDS011;5728;42.722;23.258;2023-12-20T10:25:40;124.27;;;53.57;;
11346;SDS011;5728;42.722;23.258;2023-12-20T10:28:09;122.03;;;53.30;;
11346;SDS011;5728;42.722;23.258;2023-12-20T10:30:37;121.73;;;53.07;;
11346;SDS011;5728;42.722;23.258;2023-12-20T10:33:05;117.23;;;53.70;;
11346;SDS011;5728;42.722;23.258;2023-12-20T10:35:33;115.50;;;52.03;;
11346;SDS011;5728;42.722;23.258;2023-12-20T10:38:02;115.13;;;52.03;;
11346;SDS011;5728;42.722;23.258;2023-12-20T10:40:31;115.17;;;53.37;;
11346;SDS011;5728;42.722;23.258;2023-12-20T10:43:03;104.87;;;51.50;;
11346;SDS011;5728;42.722;23.258;2023-12-20T10:45:30;109.93;;;50.90;;
11346;SDS011;5728;42.722;23.258;2023-12-20T10:47:58;110.60;;;51.40;;
11346;SDS011;5728;42.722;23.258;2023-12-20T10:50:26;111.83;;;51.97;;
11346;SDS011;5728;42.722;23.258;2023-12-20T10:52:54;112.50;;;49.33;;
11346;SDS011;5728;42.722;23.258;2023-12-20T10:55:22;97.10;;;50.03;;
11346;SDS011;5728;42.722;23.258;2023-12-20T10:57:49;99.50;;;51.20;;
11346;SDS011;5728;42.722;23.258;2023-12-20T11:00:19;105.63;;;49.83;;
11346;SDS011;5728;42.722;23.258;2023-12-20T11:02:48;104.97;;;48.97;;
11346;SDS011;5728;42.722;23.258;2023-12-20T11:05:19;115.23;;;52.63;;
11346;SDS011;5728;42.722;23.258;2023-12-20T11:07:57;98.97;;;50.57;;
11346;SDS011;5728;42.722;23.258;2023-12-20T11:10:29;106.47;;;51.17;;
11346;SDS011;5728;42.722;23.258;2023-12-20T11:12:59;98.10;;;49.63;;
11346;SDS011;5728;42.722;23.258;2023-12-20T11:15:35;100.80;;;49.10;;
11346;SDS011;5728;42.722;23.258;2023-12-20T11:18:03;99.63;;;51.70;;
11346;SDS011;5728;42.722;23.258;2023-12-20T11:20:35;107.33;;;52.83;;
11346;SDS011;5728;42.722;23.258;2023-12-20T11:23:03;114.67;;;57.03;;
11346;SDS011;5728;42.722;23.258;2023-12-20T11:25:35;121.80;;;60.60;;
11346;SDS011;5728;42.722;23.258;2023-12-20T11:28:13;139.60;;;67.67;;
11346;SDS011;5728;42.722;23.258;2023-12-20T11:30:42;132.50;;;65.07;;
11346;SDS011;5728;42.722;23.258;2023-12-20T11:33:12;145.33;;;68.07;;
11346;SDS011;5728;42.722;23.258;2023-12-20T11:35:40;144.77;;;68.70;;
11346;SDS011;5728;42.722;23.258;2023-12-20T11:38:07;140.83;;;70.97;;
11346;SDS011;5728;42.722;23.258;2023-12-20T11:40:35;161.40;;;74.00;;
11346;SDS011;5728;42.722;23.258;2023-12-20T11:43:03;141.27;;;67.20;;
11346;SDS011;5728;42.722;23.258;2023-12-20T11:45:31;135.13;;;67.37;;
11346;SDS011;5728;42.722;23.258;2023-12-20T11:48:01;125.83;;;60.60;;
11346;SDS011;5728;42.722;23.258;2023-12-20T11:50:29;132.50;;;60.57;;
11346;SDS011;5728;42.722;23.258;2023-12-20T11:52:56;119.20;;;58.60;;
11346;SDS011;5728;42.722;23.258;2023-12-20T11:55:23;113.73;;;55.70;;
11346;SDS011;5728;42.722;23.258;2023-12-20T11:57:50;113.40;;;54.00;;
11346;SDS011;5728;42.722;23.258;2023-12-20T12:00:18;114.27;;;53.90;;
11346;SDS011;5728;42.722;23.258;2023-12-20T12:02:55;111.23;;;52.87;;
11346;SDS011;5728;42.722;23.258;2023-12-20T12:05:24;103.40;;;51.17;;
11346;SDS011;5728;42.722;23.258;2023-12-20T12:07:51;117.03;;;58.23;;
11346;SDS011;5728;42.722;23.258;2023-12-20T12:10:18;109.10;;;56.23;;
11346;SDS011;5728;42.722;23.258;2023-12-20T12:12:46;125.47;;;61.83;;
11346;SDS011;5728;42.722;23.258;2023-12-20T12:15:13;118.50;;;62.00;;
11346;SDS011;5728;42.722;23.258;2023-12-20T12:17:41;124.17;;;61.53;;
11346;SDS011;5728;42.722;23.258;2023-12-20T12:20:08;126.07;;;65.50;;
11346;SDS011;5728;42.722;23.258;2023-12-20T12:22:38;130.67;;;64.60;;
11346;SDS011;5728;42.722;23.258;2023-12-20T12:25:11;135.03;;;66.03;;
11346;SDS011;5728;42.722;23.258;2023-12-20T12:27:40;142.17;;;68.77;;
11346;SDS011;5728;42.722;23.258;2023-12-20T12:30:08;137.13;;;69.23;;
11346;SDS011;5728;42.722;23.258;2023-12-20T12:32:38;141.60;;;68.03;;
11346;SDS011;5728;42.722;23.258;2023-12-20T12:35:06;140.37;;;71.07;;
11346;SDS011;5728;42.722;23.258;2023-12-20T12:37:35;154.77;;;71.40;;
11346;SDS011;5728;42.722;23.258;2023-12-20T12:40:06;137.30;;;71.50;;
11346;SDS011;5728;42.722;23.258;2023-12-20T12:42:36;149.70;;;70.40;;
11346;SDS011;5728;42.722;23.258;2023-12-20T12:45:03;141.70;;;71.47;;
11346;SDS011;5728;42.722;23.258;2023-12-20T12:47:31;150.30;;;73.83;;
11346;SDS011;5728;42.722;23.258;2023-12-20T12:49:59;160.07;;;79.07;;
11346;SDS011;5728;42.722;23.258;2023-12-20T12:52:26;156.57;;;79.33;;
11346;SDS011;5728;42.722;23.258;2023-12-20T12:54:55;153.27;;;79.87;;
11346;SDS011;5728;42.722;23.258;2023-12-20T12:57:22;159.73;;;81.20;;
11346;SDS011;5728;42.722;23.258;2023-12-20T12:59:49;163.07;;;81.83;;
11346;SDS011;5728;42.722;23.258;2023-12-20T13:02:16;155.70;;;80.80;;
11346;SDS011;5728;42.722;23.258;2023-12-20T13:04:43;167.40;;;79.40;;
11346;SDS011;5728;42.722;23.258;2023-12-20T13:07:11;151.17;;;77.80;;
11346;SDS011;5728;42.722;23.258;2023-12-20T13:09:39;163.17;;;79.10;;
11346;SDS011;5728;42.722;23.258;2023-12-20T13:12:08;153.27;;;75.57;;
11346;SDS011;5728;42.722;23.258;2023-12-20T13:14:35;148.77;;;75.17;;
11346;SDS011;5728;42.722;23.258;2023-12-20T13:17:03;150.00;;;77.17;;
11346;SDS011;5728;42.722;23.258;2023-12-20T13:19:31;155.43;;;80.97;;
11346;SDS011;5728;42.722;23.258;2023-12-20T13:21:58;160.03;;;77.40;;
11346;SDS011;5728;42.722;23.258;2023-12-20T13:24:25;163.70;;;76.10;;
11346;SDS011;5728;42.722;23.258;2023-12-20T13:26:53;163.73;;;77.17;;
11346;SDS011;5728;42.722;23.258;2023-12-20T13:29:22;160.03;;;81.07;;
11346;SDS011;5728;42.722;23.258;2023-12-20T13:31:52;167.80;;;80.13;;
11346;SDS011;5728;42.722;23.258;2023-12-20T13:34:19;153.40;;;71.17;;
11346;SDS011;5728;42.722;23.258;2023-12-20T13:36:46;160.73;;;69.00;;
11346;SDS011;5728;42.722;23.258;2023-12-20T13:39:15;157.50;;;68.37;;
11346;SDS011;5728;42.722;23.258;2023-12-20T13:41:43;164.20;;;69.60;;
11346;SDS011;5728;42.722;23.258;2023-12-20T13:44:10;154.37;;;68.03;;
11346;SDS011;5728;42.722;23.258;2023-12-20T13:46:39;157.70;;;69.63;;
11346;SDS011;5728;42.722;23.258;2023-12-20T13:49:06;153.83;;;69.33;;
11346;SDS011;5728;42.722;23.258;2023-12-20T13:51:34;148.23;;;66.13;;
11346;SDS011;5728;42.722;23.258;2023-12-20T13:54:01;158.90;;;70.67;;
11346;SDS011;5728;42.722;23.258;2023-12-20T13:56:28;151.83;;;69.33;;
11346;SDS011;5728;42.722;23.258;2023-12-20T13:58:55;173.50;;;73.37;;
11346;SDS011;5728;42.722;23.258;2023-12-20T14:01:23;156.53;;;69.80;;
11346;SDS011;5728;42.722;23.258;2023-12-20T14:03:51;159.43;;;67.60;;
11346;SDS011;5728;42.722;23.258;2023-12-20T14:06:18;144.47;;;68.23;;
11346;SDS011;5728;42.722;23.258;2023-12-20T14:08:45;151.67;;;68.80;;
11346;SDS011;5728;42.722;23.258;2023-12-20T14:11:13;166.27;;;72.83;;
11346;SDS011;5728;42.722;23.258;2023-12-20T14:13:40;166.50;;;72.80;;
11346;SDS011;5728;42.722;23.258;2023-12-20T14:16:08;165.13;;;73.43;;
11346;SDS011;5728;42.722;23.258;2023-12-20T14:18:36;161.70;;;68.97;;